Coral Island — 9HA4227 — position and weather

sailwx.info

Track history (hours):
 
Tides and Currents Weather Stations Pressure Air Temp Water Temp Dewpoint Dewpoint Depression Visibility Wind Speed Wind Dir Waves Ship Positions

Coral Island

Last reported at 2018-Feb-20 08:19 UTC. Time now 2018-Feb-22 01:03 UTC.
Position N 36°25' E 013°39'.

Length 189 m; draft 10.6 m.

Type: Cargo ship. MMSI: 249397000.

Date/timePositionNaut miles runAvg speedWind from/ knotsBaromVisibWave heightAir tempDewpointWater temp
2018-Feb-20 08:19N 36°25' E 013°39'412.8
2018-Feb-20 08:00N 36°25' E 013°44'612.9
2018-Feb-20 07:30N 36°23' E 013°51'712.5
2018-Feb-20 06:59N 36°21' E 013°59'612.4
2018-Feb-20 06:30N 36°20' E 014°06'612.4
2018-Feb-20 06:00N 36°19' E 014°14'612.6
2018-Feb-20 05:29N 36°17' E 014°22'612.4
2018-Feb-20 05:00N 36°16' E 014°29'612.1
2018-Feb-20 04:30N 36°15' E 014°37'612.1
2018-Feb-20 04:00N 36°13' E 014°44'612.1
2018-Feb-20 03:30N 36°12' E 014°51'  
Track history (hours):
 
Tides and Currents Weather Stations Pressure Air Temp Water Temp Dewpoint Dewpoint Depression Visibility Wind Speed Wind Dir Waves Ship Positions

Coral Island

Last reported at 2018-Feb-20 08:19 UTC. Time now 2018-Feb-22 01:03 UTC.
Position N 36°25' E 013°39'.

Length 189 m; draft 10.6 m.

Type: Cargo ship. MMSI: 249397000.

Date/timePositionNaut miles runAvg speedWind from/ knotsBaromVisibWave heightAir tempDewpointWater temp
2018-Feb-20 08:19N 36°25' E 013°39'412.8
2018-Feb-20 08:00N 36°25' E 013°44'612.9
2018-Feb-20 07:30N 36°23' E 013°51'712.5
2018-Feb-20 06:59N 36°21' E 013°59'612.4
2018-Feb-20 06:30N 36°20' E 014°06'612.4
2018-Feb-20 06:00N 36°19' E 014°14'612.6
2018-Feb-20 05:29N 36°17' E 014°22'612.4
2018-Feb-20 05:00N 36°16' E 014°29'612.1
2018-Feb-20 04:30N 36°15' E 014°37'612.1
2018-Feb-20 04:00N 36°13' E 014°44'612.1
2018-Feb-20 03:30N 36°12' E 014°51'  

Dump ship's entire track history